createdAt,value
2018-12-02T00:00:19.843Z,994.24
2018-12-02T00:01:19.656Z,994.15
2018-12-02T00:02:19.385Z,994.12
2018-12-02T00:03:19.283Z,994.09
2018-12-02T00:04:19.273Z,994.10
2018-12-02T00:05:19.386Z,994.04
2018-12-02T00:06:19.432Z,994.04
2018-12-02T00:07:20.002Z,993.99
2018-12-02T00:08:19.269Z,994.01
2018-12-02T00:09:19.223Z,994.01
2018-12-02T00:10:19.212Z,994.01
2018-12-02T00:11:19.219Z,994.03
2018-12-02T00:12:19.191Z,993.98
2018-12-02T00:13:19.290Z,994.00
2018-12-02T00:14:19.578Z,994.00
2018-12-02T00:15:19.160Z,993.98
2018-12-02T00:16:19.148Z,993.99
2018-12-02T00:17:19.159Z,993.94
2018-12-02T00:18:19.130Z,993.94
2018-12-02T00:19:19.215Z,993.93
2018-12-02T00:20:19.106Z,993.93
2018-12-02T00:21:19.389Z,993.88
2018-12-02T00:22:19.811Z,993.92
2018-12-02T00:23:19.073Z,993.83
2018-12-02T00:24:19.064Z,993.86
2018-12-02T00:25:19.171Z,993.88
2018-12-02T00:26:19.055Z,993.81
2018-12-02T00:27:19.056Z,993.79
2018-12-02T00:28:19.413Z,993.71
2018-12-02T00:29:19.025Z,993.76
2018-12-02T00:30:19.811Z,993.67
2018-12-02T00:31:19.261Z,993.72
2018-12-02T00:32:18.980Z,993.71
2018-12-02T00:33:19.812Z,993.69
2018-12-02T00:34:18.979Z,993.65
2018-12-02T00:35:19.435Z,993.65
2018-12-02T00:36:18.939Z,993.65
2018-12-02T00:37:18.997Z,993.60
2018-12-02T00:38:18.922Z,993.57
2018-12-02T00:39:18.908Z,993.62
2018-12-02T00:40:18.895Z,993.57
2018-12-02T00:41:18.887Z,993.57
2018-12-02T00:42:19.247Z,993.54
2018-12-02T00:43:19.153Z,993.57
2018-12-02T00:44:18.866Z,993.52
2018-12-02T00:45:18.844Z,993.51
2018-12-02T00:46:18.837Z,993.49
2018-12-02T00:47:18.826Z,993.50
2018-12-02T00:48:18.814Z,993.49
2018-12-02T00:49:19.222Z,993.47
2018-12-02T00:50:18.796Z,993.48
2018-12-02T00:51:18.783Z,993.51
2018-12-02T00:52:18.770Z,993.49
2018-12-02T00:53:18.761Z,993.48
2018-12-02T00:54:18.768Z,993.51
2018-12-02T00:55:18.810Z,993.52
2018-12-02T00:56:19.204Z,993.54
2018-12-02T00:57:18.719Z,993.44
2018-12-02T00:58:18.711Z,993.49
2018-12-02T00:59:18.698Z,993.40
2018-12-02T01:00:18.688Z,993.40
2018-12-02T01:01:18.910Z,993.40
2018-12-02T01:02:18.762Z,993.41
2018-12-02T01:03:19.002Z,993.37
2018-12-02T01:04:18.646Z,993.36
2018-12-02T01:05:18.665Z,993.32
2018-12-02T01:06:18.658Z,993.33
2018-12-02T01:07:18.689Z,993.28
2018-12-02T01:08:18.608Z,993.34
2018-12-02T01:09:18.594Z,993.29
2018-12-02T01:10:19.021Z,993.25
2018-12-02T01:11:18.599Z,993.26
2018-12-02T01:12:18.563Z,993.24
2018-12-02T01:13:18.655Z,993.21
2018-12-02T01:14:19.801Z,993.19
2018-12-02T01:15:18.541Z,993.21
2018-12-02T01:16:18.521Z,993.19
2018-12-02T01:17:18.839Z,993.16
2018-12-02T01:18:18.504Z,993.16
2018-12-02T01:19:18.852Z,993.12
2018-12-02T01:20:18.482Z,993.12
2018-12-02T01:21:18.470Z,993.09
2018-12-02T01:22:18.458Z,993.10
2018-12-02T01:23:18.449Z,993.07
2018-12-02T01:24:18.858Z,993.05
2018-12-02T01:25:18.599Z,993.05
2018-12-02T01:26:18.416Z,993.02
2018-12-02T01:27:18.407Z,992.99
2018-12-02T01:28:18.395Z,993.03
2018-12-02T01:29:18.386Z,993.05
2018-12-02T01:30:18.396Z,992.94
2018-12-02T01:31:19.824Z,993.01
2018-12-02T01:32:18.353Z,992.96
2018-12-02T01:33:18.348Z,992.98
2018-12-02T01:34:18.333Z,992.95
2018-12-02T01:35:18.323Z,992.95
2018-12-02T01:36:18.311Z,992.95
2018-12-02T01:37:18.415Z,992.94
2018-12-02T01:38:18.696Z,992.92
2018-12-02T01:39:18.327Z,992.91
2018-12-02T01:40:18.306Z,992.96
2018-12-02T01:41:18.259Z,992.91
2018-12-02T01:42:18.245Z,992.90
2018-12-02T01:43:18.324Z,992.91
2018-12-02T01:44:18.224Z,992.87
2018-12-02T01:45:18.515Z,992.82
2018-12-02T01:46:18.207Z,992.84
2018-12-02T01:47:18.193Z,992.81
2018-12-02T01:48:18.181Z,992.76
2018-12-02T01:49:18.401Z,992.78
2018-12-02T01:50:18.162Z,992.75
2018-12-02T01:51:18.152Z,992.73
2018-12-02T01:52:18.534Z,992.73
2018-12-02T01:53:18.129Z,992.74
2018-12-02T01:54:18.118Z,992.74
2018-12-02T01:55:18.216Z,992.72
2018-12-02T01:56:18.148Z,992.72
2018-12-02T01:57:18.142Z,992.67
2018-12-02T01:58:18.076Z,992.62
2018-12-02T01:59:18.557Z,992.62
2018-12-02T02:00:18.054Z,992.53
2018-12-02T02:01:18.115Z,992.47
2018-12-02T02:02:18.165Z,992.45
2018-12-02T02:03:18.024Z,992.43
2018-12-02T02:04:18.011Z,992.38
2018-12-02T02:05:17.999Z,992.36
2018-12-02T02:06:18.367Z,992.33
2018-12-02T02:07:18.051Z,992.27
2018-12-02T02:08:17.968Z,992.29
2018-12-02T02:09:17.957Z,992.19
2018-12-02T02:10:17.951Z,992.16
2018-12-02T02:11:17.935Z,992.18
2018-12-02T02:12:17.925Z,992.11
2018-12-02T02:13:18.423Z,992.10
2018-12-02T02:14:17.904Z,992.15
2018-12-02T02:15:17.900Z,992.10
2018-12-02T02:16:17.883Z,992.11
2018-12-02T02:17:17.873Z,992.07
2018-12-02T02:18:17.861Z,992.17
2018-12-02T02:19:17.924Z,992.04
2018-12-02T02:20:18.204Z,992.05
2018-12-02T02:21:17.831Z,992.05
2018-12-02T02:22:17.824Z,992.01
2018-12-02T02:23:17.807Z,992.01
2018-12-02T02:24:17.800Z,992.02
2018-12-02T02:25:17.859Z,992.00
2018-12-02T02:26:17.779Z,991.98
2018-12-02T02:27:17.765Z,991.99
2018-12-02T02:28:17.754Z,992.03
2018-12-02T02:29:17.743Z,991.99
2018-12-02T02:30:17.736Z,992.00
2018-12-02T02:31:17.813Z,991.95
2018-12-02T02:32:17.713Z,992.00
2018-12-02T02:33:18.017Z,991.98
2018-12-02T02:34:17.733Z,991.92
2018-12-02T02:35:17.708Z,991.95
2018-12-02T02:36:17.669Z,991.92
2018-12-02T02:37:17.916Z,991.90
2018-12-02T02:38:17.647Z,991.84
2018-12-02T02:39:18.019Z,991.87
2018-12-02T02:40:17.682Z,991.84
2018-12-02T02:41:17.615Z,991.81
2018-12-02T02:42:17.603Z,991.78
2018-12-02T02:43:17.668Z,991.74
2018-12-02T02:44:17.583Z,991.73
2018-12-02T02:45:17.577Z,991.74
2018-12-02T02:46:17.562Z,991.72
2018-12-02T02:47:17.551Z,991.61
2018-12-02T02:48:17.543Z,991.62
2018-12-02T02:49:17.749Z,991.59
2018-12-02T02:50:17.518Z,991.54
2018-12-02T02:51:17.978Z,991.52
2018-12-02T02:52:17.520Z,991.44
2018-12-02T02:53:17.497Z,991.42
2018-12-02T02:54:17.475Z,991.41
2018-12-02T02:55:17.553Z,991.38
2018-12-02T02:56:17.457Z,991.35
2018-12-02T02:57:17.961Z,991.37
2018-12-02T02:58:17.432Z,991.30
2018-12-02T02:59:17.422Z,991.26
2018-12-02T03:01:33.658Z,991.24
2018-12-02T03:02:33.581Z,991.20
2018-12-02T03:03:33.866Z,991.16
2018-12-02T03:04:33.558Z,991.11
2018-12-02T03:05:33.651Z,991.13
2018-12-02T03:06:33.538Z,991.08
2018-12-02T03:07:33.615Z,991.13
2018-12-02T03:08:33.514Z,991.12
2018-12-02T03:09:33.969Z,991.06
2018-12-02T03:10:33.497Z,991.08
2018-12-02T03:11:33.482Z,991.07
2018-12-02T03:12:33.487Z,991.04
2018-12-02T03:13:33.607Z,991.01
2018-12-02T03:14:33.456Z,991.02
2018-12-02T03:15:33.483Z,991.00
2018-12-02T03:16:33.716Z,990.98
2018-12-02T03:17:33.421Z,990.97
2018-12-02T03:18:33.413Z,991.06
2018-12-02T03:19:33.475Z,991.03
2018-12-02T03:20:33.394Z,991.06
2018-12-02T03:21:33.376Z,991.04
2018-12-02T03:22:33.366Z,990.96
2018-12-02T03:23:33.769Z,990.93
2018-12-02T03:24:33.350Z,990.90
2018-12-02T03:25:33.419Z,990.89
2018-12-02T03:26:33.325Z,990.91
2018-12-02T03:27:33.312Z,990.90
2018-12-02T03:28:33.303Z,990.97
2018-12-02T03:29:33.609Z,990.97
2018-12-02T03:30:33.281Z,991.00
2018-12-02T03:31:33.341Z,991.01
2018-12-02T03:32:33.259Z,991.04
2018-12-02T03:33:33.352Z,991.06
2018-12-02T03:34:33.242Z,991.05
2018-12-02T03:35:33.225Z,991.05
2018-12-02T03:36:33.662Z,990.97
2018-12-02T03:37:33.280Z,990.94
2018-12-02T03:38:33.194Z,990.95
2018-12-02T03:39:33.185Z,990.90
2018-12-02T03:40:33.180Z,990.95
2018-12-02T03:41:33.163Z,990.97
2018-12-02T03:42:33.156Z,990.95
2018-12-02T03:43:36.005Z,991.02
2018-12-02T03:44:33.131Z,991.04
2018-12-02T03:45:33.123Z,991.05
2018-12-02T03:46:33.111Z,991.03
2018-12-02T03:47:33.101Z,991.02
2018-12-02T03:48:33.088Z,990.93
2018-12-02T03:49:33.332Z,990.95
2018-12-02T03:50:33.734Z,990.95
2018-12-02T03:51:33.057Z,990.95
2018-12-02T03:52:33.815Z,990.92
2018-12-02T03:53:33.040Z,990.95
2018-12-02T03:54:33.025Z,990.92
2018-12-02T03:55:33.102Z,990.92
2018-12-02T03:56:33.004Z,990.92
2018-12-02T03:57:34.441Z,990.89
2018-12-02T03:58:33.096Z,990.88
2018-12-02T03:59:32.970Z,990.87
2018-12-02T04:00:32.961Z,990.83
2018-12-02T04:01:33.051Z,990.76
2018-12-02T04:02:32.943Z,990.70
2018-12-02T04:03:32.931Z,990.69
2018-12-02T04:04:33.262Z,990.70
2018-12-02T04:05:32.910Z,990.77
2018-12-02T04:06:32.899Z,990.77
2018-12-02T04:07:32.965Z,990.71
2018-12-02T04:08:32.894Z,990.68
2018-12-02T04:09:32.870Z,990.57
2018-12-02T04:10:32.868Z,990.62
2018-12-02T04:11:33.431Z,990.57
2018-12-02T04:12:32.839Z,990.62
2018-12-02T04:13:32.901Z,990.61
2018-12-02T04:14:32.942Z,990.59
2018-12-02T04:15:32.814Z,990.57
2018-12-02T04:16:32.795Z,990.51
2018-12-02T04:17:32.786Z,990.45
2018-12-02T04:18:33.173Z,990.47
2018-12-02T04:19:33.095Z,990.45
2018-12-02T04:20:32.759Z,990.39
2018-12-02T04:21:32.747Z,990.33
2018-12-02T04:22:32.741Z,990.35
2018-12-02T04:23:32.723Z,990.41
2018-12-02T04:24:32.709Z,990.37
2018-12-02T04:25:33.053Z,990.41
2018-12-02T04:26:32.688Z,990.37
2018-12-02T04:27:33.020Z,990.39
2018-12-02T04:28:32.667Z,990.41
2018-12-02T04:29:32.675Z,990.42
2018-12-02T04:30:32.646Z,990.40
2018-12-02T04:31:32.675Z,990.39
2018-12-02T04:32:33.159Z,990.39
2018-12-02T04:33:32.614Z,990.40
2018-12-02T04:34:32.601Z,990.41
2018-12-02T04:35:32.591Z,990.44
2018-12-02T04:36:32.584Z,990.44
2018-12-02T04:37:32.623Z,990.42
2018-12-02T04:38:32.560Z,990.44
2018-12-02T04:39:32.980Z,990.37
2018-12-02T04:40:32.616Z,990.43
2018-12-02T04:41:32.528Z,990.40
2018-12-02T04:42:32.523Z,990.38
2018-12-02T04:43:32.546Z,990.38
2018-12-02T04:44:32.497Z,990.40
2018-12-02T04:45:32.553Z,990.43
2018-12-02T04:46:32.790Z,990.37
2018-12-02T04:47:32.464Z,990.37
2018-12-02T04:48:32.491Z,990.29
2018-12-02T04:49:32.622Z,990.30
2018-12-02T04:50:32.544Z,990.32
2018-12-02T04:51:32.511Z,990.32
2018-12-02T04:52:32.409Z,990.33
2018-12-02T04:53:32.831Z,990.30
2018-12-02T04:54:32.467Z,990.30
2018-12-02T04:55:32.461Z,990.26
2018-12-02T04:56:32.488Z,990.27
2018-12-02T04:57:32.356Z,990.24
2018-12-02T04:58:32.437Z,990.22
2018-12-02T04:59:32.888Z,990.21
2018-12-02T05:00:32.437Z,990.24
2018-12-02T05:01:32.372Z,990.22
2018-12-02T05:02:32.359Z,990.22
2018-12-02T05:03:32.402Z,990.22
2018-12-02T05:04:32.388Z,990.20
2018-12-02T05:05:32.359Z,990.18
2018-12-02T05:06:32.611Z,990.17
2018-12-02T05:07:32.296Z,990.18
2018-12-02T05:08:32.239Z,990.19
2018-12-02T05:09:32.233Z,990.08
2018-12-02T05:10:32.218Z,990.05
2018-12-02T05:11:32.270Z,990.07
2018-12-02T05:12:32.197Z,990.06
2018-12-02T05:13:33.003Z,990.05
2018-12-02T05:14:32.175Z,990.03
2018-12-02T05:15:32.165Z,990.02
2018-12-02T05:16:32.152Z,990.04
2018-12-02T05:17:32.143Z,990.01
2018-12-02T05:18:32.134Z,989.98
2018-12-02T05:19:32.162Z,989.98
2018-12-02T05:20:32.455Z,989.95
2018-12-02T05:21:32.806Z,989.91
2018-12-02T05:22:32.092Z,989.88
2018-12-02T05:23:32.081Z,989.90
2018-12-02T05:24:32.073Z,989.84
2018-12-02T05:25:32.133Z,989.87
2018-12-02T05:26:32.804Z,989.80
2018-12-02T05:27:33.295Z,989.78
2018-12-02T05:28:32.037Z,989.79
2018-12-02T05:29:32.804Z,989.79
2018-12-02T05:30:32.008Z,989.76
2018-12-02T05:31:32.072Z,989.75
2018-12-02T05:32:31.987Z,989.72
2018-12-02T05:33:31.976Z,989.68
2018-12-02T05:34:32.296Z,989.63
2018-12-02T05:35:31.953Z,989.62
2018-12-02T05:36:31.945Z,989.61
2018-12-02T05:37:31.978Z,989.56
2018-12-02T05:38:31.928Z,989.55
2018-12-02T05:39:31.913Z,989.51
2018-12-02T05:40:31.906Z,989.53
2018-12-02T05:41:31.894Z,989.48
2018-12-02T05:42:31.886Z,989.44
2018-12-02T05:43:31.915Z,989.47
2018-12-02T05:44:31.859Z,989.43
2018-12-02T05:45:31.850Z,989.43
2018-12-02T05:46:32.280Z,989.42
2018-12-02T05:47:31.828Z,989.41
2018-12-02T05:48:31.817Z,989.36
2018-12-02T05:49:31.880Z,989.34
2018-12-02T05:50:31.800Z,989.37
2018-12-02T05:51:31.792Z,989.32
2018-12-02T05:52:31.780Z,989.37
2018-12-02T05:53:31.773Z,989.33
2018-12-02T05:54:31.807Z,989.31
2018-12-02T05:55:31.894Z,989.34
2018-12-02T05:56:31.738Z,989.32
2018-12-02T05:57:31.725Z,989.27
2018-12-02T05:58:32.062Z,989.35
2018-12-02T05:59:31.704Z,989.26
2018-12-02T06:00:31.695Z,989.27
2018-12-02T06:01:31.728Z,989.23
2018-12-02T06:02:31.673Z,989.27
2018-12-02T06:03:31.663Z,989.29
2018-12-02T06:04:31.654Z,989.30
2018-12-02T06:05:32.090Z,989.27
2018-12-02T06:06:31.628Z,989.27
2018-12-02T06:07:31.679Z,989.25
2018-12-02T06:08:31.624Z,989.20
2018-12-02T06:09:31.598Z,989.26
2018-12-02T06:10:31.591Z,989.23
2018-12-02T06:11:31.577Z,989.21
2018-12-02T06:12:32.936Z,989.21
2018-12-02T06:13:31.608Z,989.20
2018-12-02T06:14:31.541Z,989.22
2018-12-02T06:15:31.564Z,989.18
2018-12-02T06:16:31.562Z,989.19
2018-12-02T06:17:31.582Z,989.18
2018-12-02T06:18:31.510Z,989.16
2018-12-02T06:19:31.981Z,989.11
2018-12-02T06:20:31.482Z,989.12
2018-12-02T06:21:31.468Z,989.11
2018-12-02T06:22:31.458Z,989.08
2018-12-02T06:23:31.453Z,989.07
2018-12-02T06:24:31.437Z,989.10
2018-12-02T06:25:31.551Z,989.00
2018-12-02T06:26:31.758Z,989.08
2018-12-02T06:27:31.405Z,989.04
2018-12-02T06:28:31.395Z,989.01
2018-12-02T06:29:31.387Z,989.06
2018-12-02T06:30:31.377Z,989.04
2018-12-02T06:31:32.038Z,989.02
2018-12-02T06:32:31.353Z,989.03
2018-12-02T06:33:31.782Z,988.97
2018-12-02T06:34:31.337Z,989.00
2018-12-02T06:35:31.320Z,988.98
2018-12-02T06:36:31.312Z,988.96
2018-12-02T06:37:31.354Z,988.95
2018-12-02T06:38:31.292Z,988.97
2018-12-02T06:39:31.279Z,988.94
2018-12-02T06:40:31.627Z,988.95
2018-12-02T06:41:31.256Z,988.92
2018-12-02T06:42:31.246Z,988.96
2018-12-02T06:43:31.303Z,988.92
2018-12-02T06:44:31.324Z,988.93
2018-12-02T06:45:31.212Z,988.98
2018-12-02T06:46:31.206Z,988.95
2018-12-02T06:47:31.616Z,988.94
2018-12-02T06:48:31.182Z,988.92
2018-12-02T06:49:31.226Z,988.93
2018-12-02T06:50:31.163Z,988.91
2018-12-02T06:51:31.513Z,988.88
2018-12-02T06:52:31.140Z,988.86
2018-12-02T06:53:31.172Z,988.89
2018-12-02T06:54:31.443Z,988.87
2018-12-02T06:55:31.149Z,988.79
2018-12-02T06:56:31.095Z,988.82
2018-12-02T06:57:31.086Z,988.82
2018-12-02T06:58:31.074Z,988.81
2018-12-02T06:59:31.064Z,988.85
2018-12-02T07:00:31.055Z,988.78
2018-12-02T07:01:31.707Z,988.78
2018-12-02T07:02:31.030Z,988.76
2018-12-02T07:03:31.019Z,988.77
2018-12-02T07:04:31.019Z,988.75
2018-12-02T07:05:30.998Z,988.74
2018-12-02T07:06:31.792Z,988.74
2018-12-02T07:07:31.029Z,988.72
2018-12-02T07:08:31.484Z,988.71
2018-12-02T07:09:31.793Z,988.73
2018-12-02T07:10:30.944Z,988.73
2018-12-02T07:11:31.795Z,988.74
2018-12-02T07:12:30.924Z,988.74
2018-12-02T07:13:30.956Z,988.74
2018-12-02T07:14:30.921Z,988.74
2018-12-02T07:15:31.309Z,988.71
2018-12-02T07:16:30.882Z,988.70
2018-12-02T07:17:31.754Z,988.66
2018-12-02T07:18:30.858Z,988.69
2018-12-02T07:19:30.916Z,988.72
2018-12-02T07:20:30.838Z,988.70
2018-12-02T07:21:30.838Z,988.67
2018-12-02T07:22:31.833Z,988.62
2018-12-02T07:23:30.810Z,988.62
2018-12-02T07:24:30.795Z,988.58
2018-12-02T07:25:30.827Z,988.63
2018-12-02T07:26:30.774Z,988.64
2018-12-02T07:27:30.800Z,988.62
2018-12-02T07:28:30.755Z,988.63
2018-12-02T07:29:30.826Z,988.65
2018-12-02T07:30:30.732Z,988.61
2018-12-02T07:31:30.987Z,988.57
2018-12-02T07:32:30.712Z,988.54
2018-12-02T07:33:30.703Z,988.52
2018-12-02T07:34:30.813Z,988.53
2018-12-02T07:35:31.131Z,988.50
2018-12-02T07:36:30.671Z,988.53
2018-12-02T07:37:30.715Z,988.51
2018-12-02T07:38:30.781Z,988.51
2018-12-02T07:39:31.886Z,988.43
2018-12-02T07:40:30.629Z,988.46
2018-12-02T07:41:30.622Z,988.42
2018-12-02T07:42:30.951Z,988.37
2018-12-02T07:43:30.650Z,988.37
2018-12-02T07:44:30.585Z,988.37
2018-12-02T07:45:30.573Z,988.37
2018-12-02T07:46:30.565Z,988.35
2018-12-02T07:47:30.555Z,988.40
2018-12-02T07:48:30.544Z,988.38
2018-12-02T07:49:31.018Z,988.37
2018-12-02T07:50:30.519Z,988.36
2018-12-02T07:51:30.513Z,988.37
2018-12-02T07:52:30.500Z,988.39
2018-12-02T07:53:30.491Z,988.37
2018-12-02T07:54:30.481Z,988.35
2018-12-02T07:55:30.687Z,988.34
2018-12-02T07:56:31.023Z,988.35
2018-12-02T07:57:30.478Z,988.35
2018-12-02T07:58:30.445Z,988.31
2018-12-02T07:59:30.450Z,988.36
2018-12-02T08:00:30.448Z,988.31
2018-12-02T08:01:30.445Z,988.32
2018-12-02T08:02:30.412Z,988.35
2018-12-02T08:03:30.811Z,988.27
2018-12-02T08:04:30.372Z,988.19
2018-12-02T08:05:30.361Z,988.20
2018-12-02T08:06:30.349Z,988.15
2018-12-02T08:07:30.383Z,988.13
2018-12-02T08:08:30.329Z,988.13
2018-12-02T08:09:30.317Z,988.12
2018-12-02T08:10:30.631Z,988.13
2018-12-02T08:11:30.296Z,988.09
2018-12-02T08:12:30.328Z,988.04
2018-12-02T08:13:30.330Z,988.05
2018-12-02T08:14:30.265Z,988.07
2018-12-02T08:15:30.266Z,988.05
2018-12-02T08:16:30.244Z,988.07
2018-12-02T08:17:30.652Z,988.07
2018-12-02T08:18:30.242Z,988.04
2018-12-02T08:19:30.254Z,988.07
2018-12-02T08:20:30.200Z,988.05
2018-12-02T08:21:30.194Z,988.05
2018-12-02T08:22:30.181Z,988.05
2018-12-02T08:23:30.167Z,988.02
2018-12-02T08:24:30.481Z,988.03
2018-12-02T08:25:30.193Z,988.05
2018-12-02T08:26:30.161Z,988.01
2018-12-02T08:27:30.123Z,988.10
2018-12-02T08:28:30.781Z,988.08
2018-12-02T08:29:30.782Z,988.05
2018-12-02T08:30:30.093Z,988.07
2018-12-02T08:31:30.531Z,988.08
2018-12-02T08:32:30.319Z,988.09
2018-12-02T08:33:30.063Z,988.06
2018-12-02T08:34:30.785Z,988.10
2018-12-02T08:35:30.040Z,988.06
2018-12-02T08:36:30.232Z,988.09
2018-12-02T08:37:30.056Z,988.07
2018-12-02T08:38:30.307Z,988.09
2018-12-02T08:39:29.997Z,988.08
2018-12-02T08:40:30.785Z,988.07
2018-12-02T08:41:29.981Z,988.07
2018-12-02T08:42:30.369Z,988.02
2018-12-02T08:43:30.153Z,988.08
2018-12-02T08:44:29.942Z,987.99
2018-12-02T08:45:31.355Z,988.05
2018-12-02T08:46:29.920Z,988.03
2018-12-02T08:47:29.911Z,988.05
2018-12-02T08:48:29.899Z,988.07
2018-12-02T08:49:30.191Z,987.99
2018-12-02T08:50:29.877Z,987.98
2018-12-02T08:51:29.868Z,988.00
2018-12-02T08:52:30.152Z,988.01
2018-12-02T08:53:29.846Z,987.98
2018-12-02T08:54:29.837Z,987.98
2018-12-02T08:55:29.863Z,987.97
2018-12-02T08:56:29.813Z,987.97
2018-12-02T08:57:29.806Z,987.94
2018-12-02T08:58:29.972Z,987.83
2018-12-02T08:59:29.958Z,987.87
2018-12-02T09:00:29.922Z,987.88
2018-12-02T09:01:30.075Z,987.77
2018-12-02T09:02:29.915Z,987.88
2018-12-02T09:03:29.990Z,987.83
2018-12-02T09:04:29.727Z,987.80
2018-12-02T09:05:30.926Z,987.81
2018-12-02T09:06:29.708Z,987.81
2018-12-02T09:07:30.022Z,987.77
2018-12-02T09:08:29.684Z,987.82
2018-12-02T09:09:29.694Z,987.79
2018-12-02T09:10:29.728Z,987.77
2018-12-02T09:11:29.655Z,987.84
2018-12-02T09:12:29.694Z,987.81
2018-12-02T09:13:29.697Z,987.76
2018-12-02T09:14:29.647Z,987.74
2018-12-02T09:15:29.608Z,987.70
2018-12-02T09:18:38.264Z,987.74
2018-12-02T09:19:38.177Z,987.76
2018-12-02T09:20:38.167Z,987.75
2018-12-02T09:21:38.173Z,987.71
2018-12-02T09:22:39.059Z,987.74
2018-12-02T09:23:38.134Z,987.71
2018-12-02T09:24:38.470Z,987.71
2018-12-02T09:25:38.113Z,987.73
2018-12-02T09:26:39.056Z,987.76
2018-12-02T09:27:38.091Z,987.70
2018-12-02T09:28:38.081Z,987.68
2018-12-02T09:29:38.070Z,987.67
2018-12-02T09:30:38.103Z,987.67
2018-12-02T09:31:38.552Z,987.66
2018-12-02T09:32:38.044Z,987.69
2018-12-02T09:33:38.555Z,987.67
2018-12-02T09:34:38.556Z,987.66
2018-12-02T09:35:38.004Z,987.65
2018-12-02T09:36:38.326Z,987.60
2018-12-02T09:37:40.555Z,987.67
2018-12-02T09:38:38.500Z,987.66
2018-12-02T09:39:39.521Z,987.64
2018-12-02T09:40:37.950Z,987.61
2018-12-02T09:41:38.555Z,987.60
2018-12-02T09:42:38.931Z,987.58
2018-12-02T09:43:37.921Z,987.55
2018-12-02T09:44:37.906Z,987.59
2018-12-02T09:45:38.377Z,987.57
2018-12-02T09:46:37.884Z,987.62
2018-12-02T09:47:37.875Z,987.56
2018-12-02T09:48:38.115Z,987.55
2018-12-02T09:49:38.554Z,987.48
2018-12-02T09:50:37.958Z,987.47
2018-12-02T09:51:37.833Z,987.52
2018-12-02T09:52:39.517Z,987.49
2018-12-02T09:53:37.813Z,987.46
2018-12-02T09:54:45.054Z,987.46
2018-12-02T09:55:37.810Z,987.44
2018-12-02T09:56:37.784Z,987.41
2018-12-02T09:57:37.765Z,987.35
2018-12-02T09:58:37.754Z,987.38
2018-12-02T09:59:38.765Z,987.37
2018-12-02T10:00:37.850Z,987.32
2018-12-02T10:02:53.562Z,987.33
2018-12-02T10:03:53.361Z,987.35
2018-12-02T10:04:53.359Z,987.32
2018-12-02T10:05:55.570Z,987.31
2018-12-02T10:06:53.328Z,987.31
2018-12-02T10:07:53.316Z,987.33
2018-12-02T10:08:53.304Z,987.26
2018-12-02T10:09:53.303Z,987.27
2018-12-02T10:10:53.285Z,987.29
2018-12-02T10:11:53.442Z,987.35
2018-12-02T10:12:53.539Z,987.27
2018-12-02T10:13:53.252Z,987.21
2018-12-02T10:14:53.243Z,987.20
2018-12-02T10:15:53.230Z,987.12
2018-12-02T10:16:53.220Z,987.20
2018-12-02T10:17:53.357Z,987.28
2018-12-02T10:18:54.096Z,987.28
2018-12-02T10:19:53.192Z,987.27
2018-12-02T10:20:53.181Z,987.25
2018-12-02T10:21:53.166Z,987.25
2018-12-02T10:22:53.156Z,987.25
2018-12-02T10:23:53.264Z,987.26
2018-12-02T10:24:53.137Z,987.25
2018-12-02T10:25:53.123Z,987.25
2018-12-02T10:26:53.635Z,987.15
2018-12-02T10:27:53.310Z,987.08
2018-12-02T10:28:53.226Z,987.07
2018-12-02T10:29:54.312Z,987.08
2018-12-02T10:30:53.806Z,987.04
2018-12-02T10:31:54.133Z,987.06
2018-12-02T10:32:53.125Z,987.11
2018-12-02T10:33:53.037Z,987.11
2018-12-02T10:34:53.040Z,987.02
2018-12-02T10:35:53.449Z,987.02
2018-12-02T10:36:53.028Z,987.00
2018-12-02T10:37:52.997Z,986.97
2018-12-02T10:38:53.449Z,986.96
2018-12-02T10:39:53.161Z,987.02
2018-12-02T10:40:53.361Z,987.11
2018-12-02T10:41:54.062Z,987.07
2018-12-02T10:42:52.942Z,987.05
2018-12-02T10:43:53.016Z,986.88
2018-12-02T10:44:52.928Z,986.70
2018-12-02T10:45:52.913Z,986.80
2018-12-02T10:46:52.906Z,986.91
2018-12-02T10:47:53.165Z,987.02
2018-12-02T10:48:53.627Z,987.02
2018-12-02T10:49:52.869Z,987.00
2018-12-02T10:50:53.588Z,986.92
2018-12-02T10:51:54.271Z,986.89
2018-12-02T10:52:52.858Z,986.93
2018-12-02T10:53:52.956Z,986.88
2018-12-02T10:54:52.813Z,986.78
2018-12-02T10:55:52.819Z,986.76
2018-12-02T10:56:52.793Z,986.73
2018-12-02T10:57:53.627Z,986.78
2018-12-02T10:58:53.096Z,986.83
2018-12-02T10:59:53.623Z,986.79
2018-12-02T11:00:52.749Z,986.79
2018-12-02T11:01:52.739Z,986.72
2018-12-02T11:02:52.731Z,986.69
2018-12-02T11:03:52.809Z,986.72
2018-12-02T11:04:52.726Z,986.73
2018-12-02T11:05:53.189Z,986.74
2018-12-02T11:06:52.697Z,986.74
2018-12-02T11:07:52.691Z,986.78
2018-12-02T11:08:52.664Z,986.79
2018-12-02T11:09:52.652Z,986.75
2018-12-02T11:10:52.646Z,986.72
2018-12-02T11:11:52.766Z,986.72
2018-12-02T11:12:53.055Z,986.81
2018-12-02T11:13:54.142Z,986.70
2018-12-02T11:14:52.601Z,986.76
2018-12-02T11:15:52.590Z,986.76
2018-12-02T11:16:52.579Z,986.69
2018-12-02T11:17:52.703Z,986.71
2018-12-02T11:18:52.637Z,986.66
2018-12-02T11:19:52.548Z,986.68
2018-12-02T11:20:52.542Z,986.69
2018-12-02T11:21:52.528Z,986.70
2018-12-02T11:22:52.516Z,986.71
2018-12-02T11:23:52.652Z,986.66
2018-12-02T11:24:52.495Z,986.59
2018-12-02T11:25:53.124Z,986.61
2018-12-02T11:26:53.139Z,986.53
2018-12-02T11:27:52.471Z,986.50
2018-12-02T11:28:52.468Z,986.52
2018-12-02T11:29:52.576Z,986.56
2018-12-02T11:30:52.466Z,986.56
2018-12-02T11:31:53.583Z,986.53
2018-12-02T11:32:52.513Z,986.52
2018-12-02T11:33:52.399Z,986.46
2018-12-02T11:34:52.388Z,986.47
2018-12-02T11:35:52.784Z,986.48
2018-12-02T11:36:52.451Z,986.50
2018-12-02T11:37:52.846Z,986.55
2018-12-02T11:38:52.362Z,986.52
2018-12-02T11:39:52.433Z,986.51
2018-12-02T11:40:52.327Z,986.45
2018-12-02T11:41:52.673Z,986.47
2018-12-02T11:42:52.307Z,986.48
2018-12-02T11:43:52.627Z,986.45
2018-12-02T11:44:52.480Z,986.51
2018-12-02T11:45:52.298Z,986.47
2018-12-02T11:46:52.356Z,986.52
2018-12-02T11:47:53.594Z,986.51
2018-12-02T11:48:52.375Z,986.44
2018-12-02T11:49:52.341Z,986.47
2018-12-02T11:50:52.784Z,986.46
2018-12-02T11:51:52.208Z,986.51
2018-12-02T11:52:52.201Z,986.44
2018-12-02T11:53:52.231Z,986.53
2018-12-02T11:54:52.177Z,986.49
2018-12-02T11:55:52.169Z,986.47
2018-12-02T11:56:52.175Z,986.44
2018-12-02T11:57:52.452Z,986.49
2018-12-02T11:58:52.306Z,986.47
2018-12-02T11:59:52.600Z,986.48
2018-12-02T12:00:52.118Z,986.45
2018-12-02T12:01:52.125Z,986.43
2018-12-02T12:02:52.803Z,986.43
2018-12-02T12:03:52.182Z,986.46
2018-12-02T12:04:52.657Z,986.46
2018-12-02T12:05:52.854Z,986.48
2018-12-02T12:06:52.175Z,986.43
2018-12-02T12:07:52.288Z,986.45
2018-12-02T12:08:52.394Z,986.52
2018-12-02T12:09:52.055Z,986.45
2018-12-02T12:10:52.158Z,986.40
2018-12-02T12:11:52.673Z,986.44
2018-12-02T12:12:52.006Z,986.41
2018-12-02T12:13:52.067Z,986.42
2018-12-02T12:14:51.967Z,986.41
2018-12-02T12:15:52.071Z,986.36
2018-12-02T12:16:51.946Z,986.40
2018-12-02T12:17:52.064Z,986.40
2018-12-02T12:18:52.262Z,986.39
2018-12-02T12:19:51.940Z,986.35
2018-12-02T12:20:51.904Z,986.34
2018-12-02T12:21:51.892Z,986.35
2018-12-02T12:22:51.882Z,986.30
2018-12-02T12:23:52.087Z,986.34
2018-12-02T12:24:51.956Z,986.35
2018-12-02T12:25:51.905Z,986.36
2018-12-02T12:26:52.041Z,986.34
2018-12-02T12:27:51.887Z,986.32
2018-12-02T12:28:52.240Z,986.35
2018-12-02T12:29:52.643Z,986.32
2018-12-02T12:30:51.869Z,986.33
2018-12-02T12:31:52.274Z,986.33
2018-12-02T12:32:51.791Z,986.38